Maltby, Washington
Current Conditions -  °F | °C
As of 1:26 AM on Friday 31 Oct 2014 (Local Time) from KPAE Reporting Station
Light Rain Light Rain  
Wind Chill: 52°   Ceiling: 900
Heat Index: 52°   Visibility: 6mi
Dew Point: 50°   Wind: 6mph
Humidity: 93%   Direction: 20°NNE
Pressure: 29.77"   Gusts: NA
Location:  47.9468°N, 122.012°W
Report Text: KPAE 310826Z AUTO 02005KT 6SM -RA BR SCT004 OVC009 11/10 A2977 RMK AO2 P0003 T01110100
Loading
Personal Weather Stations






























Interactive Weather Map
Tropical Storm Tracking
New forecast layout! Learn more

10-Day Weather Forecast

Advertisements
Track Severe Weather on mobile